Time,TemperatureF,DewpointF,PressureIn,WindDirection,WindDirectionDegrees,WindSpeedMPH,WindSpeedGustMPH,Humidity,HourlyPrecipIn,Conditions,Clouds,dailyrainin,SoftwareType,DateUTC
2013-05-05 00:01:00,35.4,34.4,30.02,SW,222,0.0,0.0,96,0.00,,,0.00,Wunderground v.1.15,2013-05-05 05:01:00,
2013-05-05 00:07:00,35.5,34.5,30.02,SW,222,0.0,0.0,96,0.00,,,0.00,Wunderground v.1.15,2013-05-05 05:07:00,
2013-05-05 00:12:00,35.7,34.7,30.03,SW,222,0.0,0.0,96,0.00,,,0.00,Wunderground v.1.15,2013-05-05 05:12:00,
2013-05-05 00:17:00,36.0,35.0,30.02,West,259,0.0,0.0,96,0.00,,,0.00,Wunderground v.1.15,2013-05-05 05:17:00,
2013-05-05 00:22:00,36.3,35.3,30.03,WSW,258,0.0,0.0,96,0.00,,,0.00,Wunderground v.1.15,2013-05-05 05:22:00,
2013-05-05 00:27:00,36.5,35.5,30.02,SW,226,0.0,0.0,96,0.00,,,0.00,Wunderground v.1.15,2013-05-05 05:27:00,
2013-05-05 00:33:00,36.7,35.7,30.03,SW,226,0.0,0.0,96,0.00,,,0.00,Wunderground v.1.15,2013-05-05 05:33:00,
2013-05-05 00:38:00,36.8,35.8,30.03,SW,226,0.0,0.0,96,0.00,,,0.00,Wunderground v.1.15,2013-05-05 05:38:00,
2013-05-05 00:43:00,37.1,36.1,30.03,SW,226,0.0,0.0,96,0.00,,,0.00,Wunderground v.1.15,2013-05-05 05:43:00,
2013-05-05 00:48:00,37.3,36.3,30.03,WSW,238,0.0,0.0,96,0.00,,,0.00,Wunderground v.1.15,2013-05-05 05:48:00,
2013-05-05 00:53:00,37.5,36.5,30.03,WSW,238,0.0,0.0,96,0.00,,,0.00,Wunderground v.1.15,2013-05-05 05:53:00,
2013-05-05 00:59:00,37.6,36.6,30.03,SE,132,0.0,0.0,96,0.00,,,0.00,Wunderground v.1.15,2013-05-05 05:59:00,
2013-05-05 01:05:00,37.6,36.6,30.03,SE,132,0.0,0.0,96,0.00,,,0.00,Wunderground v.1.15,2013-05-05 06:05:00,
2013-05-05 01:10:00,37.7,36.7,30.03,SE,132,0.0,0.0,96,0.00,,,0.00,Wunderground v.1.15,2013-05-05 06:10:00,
2013-05-05 01:15:00,37.9,36.9,30.03,SE,132,0.0,0.0,96,0.00,,,0.00,Wunderground v.1.15,2013-05-05 06:15:00,
2013-05-05 01:21:00,38.2,37.2,30.03,SE,132,0.0,0.0,96,0.00,,,0.00,Wunderground v.1.15,2013-05-05 06:21:00,
2013-05-05 01:26:00,38.3,37.3,30.03,ESE,113,0.0,1.0,96,0.00,,,0.00,Wunderground v.1.15,2013-05-05 06:26:00,
2013-05-05 01:31:00,38.4,37.4,30.02,SE,124,0.0,1.0,96,0.00,,,0.00,Wunderground v.1.15,2013-05-05 06:31:00,
2013-05-05 01:36:00,38.5,37.5,30.02,SE,127,0.0,1.0,96,0.00,,,0.00,Wunderground v.1.15,2013-05-05 06:36:00,
2013-05-05 01:41:00,38.6,37.6,30.02,SE,127,0.0,0.0,96,0.00,,,0.00,Wunderground v.1.15,2013-05-05 06:41:00,
2013-05-05 01:47:00,38.5,37.2,30.02,SE,129,0.0,0.0,95,0.00,,,0.00,Wunderground v.1.15,2013-05-05 06:47:00,
2013-05-05 01:52:00,38.4,37.1,30.02,SE,130,0.0,0.0,95,0.00,,,0.00,Wunderground v.1.15,2013-05-05 06:52:00,
2013-05-05 01:57:00,38.4,37.1,30.02,SSW,193,0.0,0.0,95,0.00,,,0.00,Wunderground v.1.15,2013-05-05 06:57:00,
2013-05-05 02:02:00,38.4,37.1,30.02,SW,219,0.0,0.0,95,0.00,,,0.00,Wunderground v.1.15,2013-05-05 07:02:00,
2013-05-05 02:07:00,38.3,37.0,30.02,SW,220,0.0,0.0,95,0.00,,,0.00,Wunderground v.1.15,2013-05-05 07:07:00,
2013-05-05 02:12:00,38.3,37.0,30.01,SW,225,0.0,0.0,95,0.00,,,0.00,Wunderground v.1.15,2013-05-05 07:12:00,
2013-05-05 02:17:00,38.2,37.2,30.02,SW,225,0.0,0.0,96,0.00,,,0.00,Wunderground v.1.15,2013-05-05 07:17:00,
2013-05-05 02:22:00,38.2,37.2,30.02,SW,225,0.0,0.0,96,0.00,,,0.00,Wunderground v.1.15,2013-05-05 07:22:00,
2013-05-05 02:27:00,38.1,37.1,30.02,SW,225,0.0,0.0,96,0.00,,,0.00,Wunderground v.1.15,2013-05-05 07:27:00,
2013-05-05 02:32:00,38.0,37.0,30.02,SW,225,0.0,0.0,96,0.00,,,0.00,Wunderground v.1.15,2013-05-05 07:32:00,
2013-05-05 02:37:00,38.0,37.0,30.02,SW,225,0.0,0.0,96,0.00,,,0.00,Wunderground v.1.15,2013-05-05 07:37:00,
2013-05-05 02:42:00,38.1,37.1,30.02,SW,225,0.0,0.0,96,0.00,,,0.00,Wunderground v.1.15,2013-05-05 07:42:00,
2013-05-05 02:47:00,38.3,37.3,30.01,SW,225,0.0,0.0,96,0.00,,,0.00,Wunderground v.1.15,2013-05-05 07:47:00,
2013-05-05 02:52:00,38.4,37.4,30.01,SW,225,0.0,0.0,96,0.00,,,0.00,Wunderground v.1.15,2013-05-05 07:52:00,
2013-05-05 02:57:00,38.4,37.4,30.02,SW,225,0.0,0.0,96,0.00,,,0.00,Wunderground v.1.15,2013-05-05 07:57:00,
2013-05-05 03:02:00,38.5,37.5,30.02,SW,225,0.0,0.0,96,0.00,,,0.00,Wunderground v.1.15,2013-05-05 08:02:00,
2013-05-05 03:07:00,38.5,37.5,30.01,SW,225,0.0,0.0,96,0.00,,,0.00,Wunderground v.1.15,2013-05-05 08:07:00,
2013-05-05 03:12:00,38.6,37.6,30.01,SW,225,0.0,0.0,96,0.00,,,0.00,Wunderground v.1.15,2013-05-05 08:12:00,
2013-05-05 03:17:00,38.5,37.5,30.01,SW,225,0.0,0.0,96,0.00,,,0.00,Wunderground v.1.15,2013-05-05 08:17:00,
2013-05-05 03:22:00,38.4,37.4,30.01,SSW,207,0.0,0.0,96,0.00,,,0.00,Wunderground v.1.15,2013-05-05 08:22:00,
2013-05-05 03:27:00,38.3,37.3,30.02,SSW,207,0.0,0.0,96,0.00,,,0.00,Wunderground v.1.15,2013-05-05 08:27:00,
2013-05-05 03:32:00,38.0,36.7,30.02,SSW,207,0.0,0.0,95,0.00,,,0.00,Wunderground v.1.15,2013-05-05 08:32:00,
2013-05-05 03:37:00,37.8,36.8,30.01,SSW,211,0.0,0.0,96,0.00,,,0.00,Wunderground v.1.15,2013-05-05 08:37:00,
2013-05-05 03:42:00,37.6,36.6,30.01,SSW,211,0.0,0.0,96,0.00,,,0.00,Wunderground v.1.15,2013-05-05 08:42:00,
2013-05-05 03:47:00,37.5,36.5,30.01,SSW,211,0.0,0.0,96,0.00,,,0.00,Wunderground v.1.15,2013-05-05 08:47:00,
2013-05-05 03:52:00,37.5,36.5,30.02,SSW,211,0.0,0.0,96,0.00,,,0.00,Wunderground v.1.15,2013-05-05 08:52:00,
2013-05-05 03:57:00,37.3,36.3,30.01,SSW,211,0.0,0.0,96,0.00,,,0.00,Wunderground v.1.15,2013-05-05 08:57:00,
2013-05-05 04:02:00,37.1,36.1,30.02,SE,144,0.0,0.0,96,0.00,,,0.00,Wunderground v.1.15,2013-05-05 09:02:00,
2013-05-05 04:07:00,36.9,35.9,30.02,South,173,0.0,0.0,96,0.00,,,0.00,Wunderground v.1.15,2013-05-05 09:07:00,
2013-05-05 04:12:00,37.0,36.0,30.02,SW,236,0.0,0.0,96,0.00,,,0.00,Wunderground v.1.15,2013-05-05 09:12:00,
2013-05-05 04:17:00,36.8,35.8,30.03,SW,229,0.0,0.0,96,0.00,,,0.00,Wunderground v.1.15,2013-05-05 09:17:00,
2013-05-05 04:22:00,36.7,35.7,30.03,South,183,0.0,0.0,96,0.00,,,0.00,Wunderground v.1.15,2013-05-05 09:22:00,
2013-05-05 04:27:00,36.5,35.5,30.03,South,183,0.0,0.0,96,0.00,,,0.00,Wunderground v.1.15,2013-05-05 09:27:00,
2013-05-05 04:32:00,36.4,35.4,30.03,South,183,0.0,0.0,96,0.00,,,0.00,Wunderground v.1.15,2013-05-05 09:32:00,
2013-05-05 04:37:00,36.6,35.8,30.03,SW,226,0.0,0.0,97,0.00,,,0.00,Wunderground v.1.15,2013-05-05 09:37:00,
2013-05-05 04:42:00,36.7,35.7,30.03,SW,222,0.0,0.0,96,0.00,,,0.00,Wunderground v.1.15,2013-05-05 09:42:00,
2013-05-05 04:47:00,36.6,35.6,30.03,SW,222,0.0,0.0,96,0.00,,,0.00,Wunderground v.1.15,2013-05-05 09:47:00,
2013-05-05 04:52:00,36.6,35.6,30.03,SW,222,0.0,0.0,96,0.00,,,0.00,Wunderground v.1.15,2013-05-05 09:52:00,
2013-05-05 04:57:00,36.7,35.7,30.03,SW,222,0.0,0.0,96,0.00,,,0.00,Wunderground v.1.15,2013-05-05 09:57:00,
2013-05-05 05:02:00,36.7,35.7,30.03,SW,222,0.0,0.0,96,0.00,,,0.00,Wunderground v.1.15,2013-05-05 10:02:00,
2013-05-05 05:07:00,36.6,35.6,30.03,SW,222,0.0,0.0,96,0.00,,,0.00,Wunderground v.1.15,2013-05-05 10:07:00,
2013-05-05 05:12:00,36.4,35.4,30.03,SW,222,0.0,0.0,96,0.00,,,0.00,Wunderground v.1.15,2013-05-05 10:12:00,
2013-05-05 05:17:00,36.3,35.3,30.03,SW,222,0.0,0.0,96,0.00,,,0.00,Wunderground v.1.15,2013-05-05 10:17:00,
2013-05-05 05:22:00,36.3,35.3,30.04,SW,222,0.0,0.0,96,0.00,,,0.00,Wunderground v.1.15,2013-05-05 10:22:00,
2013-05-05 05:27:00,36.9,36.1,30.04,West,270,2.0,2.0,97,0.00,,,0.00,Wunderground v.1.15,2013-05-05 10:27:00,
2013-05-05 05:32:00,37.7,36.9,30.04,NW,326,0.0,1.0,97,0.00,,,0.00,Wunderground v.1.15,2013-05-05 10:32:00,
2013-05-05 05:37:00,38.1,37.3,30.04,NW,309,0.0,1.0,97,0.00,,,0.00,Wunderground v.1.15,2013-05-05 10:37:00,
2013-05-05 05:42:00,38.5,37.7,30.04,NNE,20,1.0,1.0,97,0.00,,,0.00,Wunderground v.1.15,2013-05-05 10:42:00,
2013-05-05 05:47:00,38.9,38.1,30.04,NW,320,0.0,3.0,97,0.00,,,0.00,Wunderground v.1.15,2013-05-05 10:47:00,
2013-05-05 05:52:00,39.1,38.3,30.04,West,275,0.0,3.0,97,0.00,,,0.00,Wunderground v.1.15,2013-05-05 10:52:00,
2013-05-05 05:57:00,39.2,38.2,30.04,WSW,238,0.0,3.0,96,0.00,,,0.00,Wunderground v.1.15,2013-05-05 10:57:00,
2013-05-05 06:02:00,39.3,38.0,30.04,West,273,0.0,0.0,95,0.00,,,0.00,Wunderground v.1.15,2013-05-05 11:02:00,
2013-05-05 06:07:00,39.3,38.0,30.05,NE,49,0.0,0.0,95,0.00,,,0.00,Wunderground v.1.15,2013-05-05 11:07:00,
2013-05-05 06:12:00,39.5,38.2,30.05,ESE,102,0.0,0.0,95,0.00,,,0.00,Wunderground v.1.15,2013-05-05 11:12:00,
2013-05-05 06:17:00,39.5,37.9,30.05,NW,316,0.0,3.0,94,0.00,,,0.00,Wunderground v.1.15,2013-05-05 11:17:00,
2013-05-05 06:22:00,39.6,38.0,30.05,WNW,287,0.0,1.0,94,0.00,,,0.00,Wunderground v.1.15,2013-05-05 11:22:00,
2013-05-05 06:27:00,39.7,38.1,30.05,ENE,68,0.0,2.0,94,0.00,,,0.00,Wunderground v.1.15,2013-05-05 11:27:00,
2013-05-05 06:32:00,39.7,38.1,30.05,WNW,288,0.0,2.0,94,0.00,,,0.00,Wunderground v.1.15,2013-05-05 11:32:00,
2013-05-05 06:37:00,39.8,38.2,30.05,ESE,112,1.0,3.0,94,0.00,,,0.00,Wunderground v.1.15,2013-05-05 11:37:00,
2013-05-05 06:42:00,40.0,38.4,30.05,NW,317,1.0,3.0,94,0.00,,,0.00,Wunderground v.1.15,2013-05-05 11:42:00,
2013-05-05 06:47:00,40.1,38.5,30.06,ENE,64,3.0,4.0,94,0.00,,,0.00,Wunderground v.1.15,2013-05-05 11:47:00,
2013-05-05 06:52:00,40.1,38.5,30.06,NNE,15,0.0,2.0,94,0.00,,,0.00,Wunderground v.1.15,2013-05-05 11:52:00,
2013-05-05 06:57:00,40.3,38.4,30.06,NNE,16,2.0,3.0,93,0.00,,,0.00,Wunderground v.1.15,2013-05-05 11:57:00,
2013-05-05 07:02:00,40.3,38.4,30.06,NE,34,2.0,6.0,93,0.00,,,0.00,Wunderground v.1.15,2013-05-05 12:02:00,
2013-05-05 07:07:00,40.3,38.4,30.06,NW,316,2.0,6.0,93,0.00,,,0.00,Wunderground v.1.15,2013-05-05 12:07:00,
2013-05-05 07:12:00,40.3,38.4,30.06,NNE,13,2.0,5.0,93,0.00,,,0.00,Wunderground v.1.15,2013-05-05 12:12:00,
2013-05-05 07:17:00,40.3,38.4,30.07,ENE,76,3.0,8.0,93,0.00,,,0.00,Wunderground v.1.15,2013-05-05 12:17:00,
2013-05-05 07:22:00,40.4,38.5,30.07,NNE,33,0.0,3.0,93,0.00,,,0.00,Wunderground v.1.15,2013-05-05 12:22:00,
2013-05-05 07:27:00,40.4,38.5,30.07,NW,323,4.0,5.0,93,0.00,,,0.00,Wunderground v.1.15,2013-05-05 12:27:00,
2013-05-05 07:32:00,40.3,38.2,30.08,NNW,336,2.0,6.0,92,0.00,,,0.00,Wunderground v.1.15,2013-05-05 12:32:00,
2013-05-05 07:37:00,40.0,37.9,30.08,NNE,12,1.0,8.0,92,0.00,,,0.00,Wunderground v.1.15,2013-05-05 12:37:00,
2013-05-05 07:42:00,39.8,37.9,30.08,NE,44,2.0,6.0,93,0.00,,,0.00,Wunderground v.1.15,2013-05-05 12:42:00,
2013-05-05 07:47:00,39.7,37.8,30.08,NNW,347,1.0,6.0,93,0.00,,,0.00,Wunderground v.1.15,2013-05-05 12:47:00,
2013-05-05 07:52:00,39.6,37.7,30.08,NNW,341,2.0,2.0,93,0.00,,,0.00,Wunderground v.1.15,2013-05-05 12:52:00,
2013-05-05 07:57:00,39.7,37.8,30.08,NNE,20,1.0,5.0,93,0.00,,,0.00,Wunderground v.1.15,2013-05-05 12:57:00,
2013-05-05 08:02:00,39.9,38.3,30.08,NW,323,0.0,1.0,94,0.00,,,0.00,Wunderground v.1.15,2013-05-05 13:02:00,
2013-05-05 08:07:00,40.0,38.1,30.08,NNW,334,0.0,5.0,93,0.00,,,0.00,Wunderground v.1.15,2013-05-05 13:07:00,
2013-05-05 08:12:00,40.3,38.4,30.08,NE,45,0.0,1.0,93,0.00,,,0.00,Wunderground v.1.15,2013-05-05 13:12:00,
2013-05-05 08:17:00,40.6,38.7,30.08,NE,53,3.0,4.0,93,0.00,,,0.00,Wunderground v.1.15,2013-05-05 13:17:00,
2013-05-05 08:22:00,40.9,39.0,30.09,ENE,68,0.0,3.0,93,0.00,,,0.00,Wunderground v.1.15,2013-05-05 13:22:00,
2013-05-05 08:27:00,41.4,39.5,30.08,NE,54,2.0,3.0,93,0.00,,,0.00,Wunderground v.1.15,2013-05-05 13:27:00,
2013-05-05 08:32:00,41.7,39.5,30.09,West,263,0.0,2.0,92,0.00,,,0.00,Wunderground v.1.15,2013-05-05 13:32:00,
2013-05-05 08:37:00,42.0,39.6,30.09,NW,304,1.0,3.0,91,0.00,,,0.00,Wunderground v.1.15,2013-05-05 13:37:00,
2013-05-05 08:42:00,42.4,40.0,30.09,NNE,30,2.0,5.0,91,0.00,,,0.00,Wunderground v.1.15,2013-05-05 13:42:00,
2013-05-05 08:47:00,42.8,40.4,30.09,NNE,15,0.0,5.0,91,0.00,,,0.00,Wunderground v.1.15,2013-05-05 13:47:00,
2013-05-05 08:52:00,43.2,40.2,30.10,NNE,30,3.0,3.0,89,0.00,,,0.00,Wunderground v.1.15,2013-05-05 13:52:00,
2013-05-05 08:57:00,43.3,40.0,30.10,ENE,77,2.0,5.0,88,0.00,,,0.00,Wunderground v.1.15,2013-05-05 13:57:00,
2013-05-05 09:02:00,43.5,40.5,30.10,NNE,18,1.0,4.0,89,0.00,,,0.00,Wunderground v.1.15,2013-05-05 14:02:00,
2013-05-05 09:07:00,43.9,40.6,30.10,NW,316,1.0,4.0,88,0.00,,,0.00,Wunderground v.1.15,2013-05-05 14:07:00,
2013-05-05 09:12:00,44.0,40.7,30.10,NW,314,0.0,3.0,88,0.00,,,0.00,Wunderground v.1.15,2013-05-05 14:12:00,
2013-05-05 09:17:00,44.1,40.5,30.09,NNW,339,3.0,6.0,87,0.00,,,0.00,Wunderground v.1.15,2013-05-05 14:17:00,
2013-05-05 09:22:00,44.2,40.3,30.09,East,95,0.0,6.0,86,0.00,,,0.00,Wunderground v.1.15,2013-05-05 14:22:00,
2013-05-05 09:27:00,44.4,40.5,30.09,East,89,9.0,9.0,86,0.00,,,0.00,Wunderground v.1.15,2013-05-05 14:27:00,
2013-05-05 09:32:00,44.5,40.0,30.10,West,277,4.0,8.0,84,0.00,,,0.00,Wunderground v.1.15,2013-05-05 14:32:00,
2013-05-05 09:37:00,44.7,40.5,30.10,ENE,76,1.0,8.0,85,0.00,,,0.00,Wunderground v.1.15,2013-05-05 14:37:00,
2013-05-05 09:42:00,45.2,40.7,30.09,WNW,284,1.0,5.0,84,0.00,,,0.00,Wunderground v.1.15,2013-05-05 14:42:00,
2013-05-05 09:47:00,45.8,40.9,30.09,East,90,3.0,6.0,83,0.00,,,0.00,Wunderground v.1.15,2013-05-05 14:47:00,
2013-05-05 09:52:00,46.7,41.5,30.09,NE,40,2.0,5.0,82,0.00,,,0.00,Wunderground v.1.15,2013-05-05 14:52:00,
2013-05-05 09:57:00,47.5,41.6,30.09,WNW,297,3.0,5.0,80,0.00,,,0.00,Wunderground v.1.15,2013-05-05 14:57:00,
2013-05-05 10:02:00,47.9,42.0,30.09,NE,47,2.0,6.0,80,0.00,,,0.00,Wunderground v.1.15,2013-05-05 15:02:00,
2013-05-05 10:07:00,48.6,42.7,30.09,North,355,3.0,10.0,80,0.00,,,0.00,Wunderground v.1.15,2013-05-05 15:07:00,
2013-05-05 10:12:00,48.6,42.0,30.09,NW,315,2.0,4.0,78,0.00,,,0.00,Wunderground v.1.15,2013-05-05 15:12:00,
2013-05-05 10:17:00,48.2,41.0,30.09,West,278,1.0,5.0,76,0.00,,,0.00,Wunderground v.1.15,2013-05-05 15:17:00,
2013-05-05 10:22:00,47.7,40.5,30.09,West,279,3.0,9.0,76,0.00,,,0.00,Wunderground v.1.15,2013-05-05 15:22:00,
2013-05-05 10:27:00,47.5,40.6,30.09,NNW,333,4.0,9.0,77,0.00,,,0.00,Wunderground v.1.15,2013-05-05 15:27:00,
2013-05-05 10:32:00,47.6,41.1,30.09,NE,44,3.0,5.0,78,0.00,,,0.00,Wunderground v.1.15,2013-05-05 15:32:00,
2013-05-05 10:37:00,48.7,42.8,30.09,NW,316,3.0,6.0,80,0.00,,,0.00,Wunderground v.1.15,2013-05-05 15:37:00,
2013-05-05 10:42:00,49.7,42.8,30.09,WSW,240,2.0,7.0,77,0.00,,,0.00,Wunderground v.1.15,2013-05-05 15:42:00,
2013-05-05 10:48:00,50.0,41.7,30.09,NW,321,6.0,7.0,73,0.00,,,0.00,Wunderground v.1.15,2013-05-05 15:48:00,
2013-05-05 10:53:00,49.6,41.3,30.09,West,278,3.0,4.0,73,0.00,,,0.00,Wunderground v.1.15,2013-05-05 15:53:00,
2013-05-05 10:58:00,49.5,41.2,30.09,NNW,343,1.0,7.0,73,0.00,,,0.00,Wunderground v.1.15,2013-05-05 15:58:00,
2013-05-05 11:03:00,50.7,43.1,30.09,East,84,1.0,6.0,75,0.00,,,0.00,Wunderground v.1.15,2013-05-05 16:03:00,
2013-05-05 11:08:00,51.4,43.0,30.09,NE,43,3.0,7.0,73,0.00,,,0.00,Wunderground v.1.15,2013-05-05 16:08:00,
2013-05-05 11:13:00,52.0,43.3,30.09,NW,319,2.0,6.0,72,0.00,,,0.00,Wunderground v.1.15,2013-05-05 16:13:00,
2013-05-05 11:18:00,52.1,42.2,30.09,WNW,288,1.0,6.0,69,0.00,,,0.00,Wunderground v.1.15,2013-05-05 16:18:00,
2013-05-05 11:23:00,52.7,42.4,30.09,NW,304,3.0,4.0,68,0.00,,,0.00,Wunderground v.1.15,2013-05-05 16:23:00,
2013-05-05 11:28:00,53.0,42.7,30.08,ENE,72,4.0,6.0,68,0.00,,,0.00,Wunderground v.1.15,2013-05-05 16:28:00,
2013-05-05 11:33:00,53.6,42.5,30.08,NNE,25,1.0,5.0,66,0.00,,,0.00,Wunderground v.1.15,2013-05-05 16:33:00,
2013-05-05 11:38:00,54.1,43.0,30.09,West,269,1.0,5.0,66,0.00,,,0.00,Wunderground v.1.15,2013-05-05 16:38:00,
2013-05-05 11:43:00,54.1,41.8,30.09,NNW,335,3.0,5.0,63,0.00,,,0.00,Wunderground v.1.15,2013-05-05 16:43:00,
2013-05-05 11:48:00,54.6,43.1,30.08,NNE,12,2.0,9.0,65,0.00,,,0.00,Wunderground v.1.15,2013-05-05 16:48:00,
2013-05-05 11:53:00,54.9,43.4,30.08,NNE,23,2.0,5.0,65,0.00,,,0.00,Wunderground v.1.15,2013-05-05 16:53:00,
2013-05-05 11:58:00,55.0,43.4,30.08,NNW,330,2.0,8.0,65,0.00,,,0.00,Wunderground v.1.15,2013-05-05 16:58:00,
2013-05-05 12:03:00,53.9,42.4,30.08,NW,314,5.0,6.0,65,0.00,,,0.00,Wunderground v.1.15,2013-05-05 17:03:00,
2013-05-05 12:08:00,53.4,41.9,30.08,NNW,347,4.0,9.0,65,0.00,,,0.00,Wunderground v.1.15,2013-05-05 17:08:00,
2013-05-05 12:13:00,53.9,43.2,30.08,WNW,283,1.0,6.0,67,0.00,,,0.00,Wunderground v.1.15,2013-05-05 17:13:00,
2013-05-05 12:18:00,55.0,43.8,30.08,WNW,290,3.0,7.0,66,0.00,,,0.00,Wunderground v.1.15,2013-05-05 17:18:00,
2013-05-05 12:23:00,55.0,43.8,30.07,NW,305,3.0,8.0,66,0.00,,,0.00,Wunderground v.1.15,2013-05-05 17:23:00,
2013-05-05 12:28:00,55.3,42.9,30.08,WNW,301,6.0,8.0,63,0.00,,,0.00,Wunderground v.1.15,2013-05-05 17:28:00,
2013-05-05 12:33:00,55.3,43.3,30.07,West,274,5.0,9.0,64,0.00,,,0.00,Wunderground v.1.15,2013-05-05 17:33:00,
2013-05-05 12:38:00,55.7,43.7,30.07,NNW,342,1.0,9.0,64,0.00,,,0.00,Wunderground v.1.15,2013-05-05 17:38:00,
2013-05-05 12:43:00,56.0,43.6,30.07,NNW,330,3.0,9.0,63,0.00,,,0.00,Wunderground v.1.15,2013-05-05 17:43:00,
2013-05-05 12:48:00,55.9,43.1,30.07,NW,314,2.0,9.0,62,0.00,,,0.00,Wunderground v.1.15,2013-05-05 17:48:00,
2013-05-05 12:53:00,56.4,44.4,30.07,East,95,2.0,6.0,64,0.00,,,0.00,Wunderground v.1.15,2013-05-05 17:53:00,
2013-05-05 12:58:00,56.4,43.1,30.06,NW,310,4.0,8.0,61,0.00,,,0.00,Wunderground v.1.15,2013-05-05 17:58:00,
2013-05-05 13:03:00,56.1,43.3,30.06,NNE,14,4.0,8.0,62,0.00,,,0.00,Wunderground v.1.15,2013-05-05 18:03:00,
2013-05-05 13:08:00,56.0,44.4,30.06,WNW,285,8.0,8.0,65,0.00,,,0.00,Wunderground v.1.15,2013-05-05 18:08:00,
2013-05-05 13:13:00,56.3,44.3,30.06,NW,319,1.0,4.0,64,0.00,,,0.00,Wunderground v.1.15,2013-05-05 18:13:00,
2013-05-05 13:18:00,56.2,44.2,30.06,NNE,20,3.0,9.0,64,0.00,,,0.00,Wunderground v.1.15,2013-05-05 18:18:00,
2013-05-05 13:23:00,56.3,44.3,30.06,WNW,297,3.0,5.0,64,0.00,,,0.00,Wunderground v.1.15,2013-05-05 18:23:00,
2013-05-05 13:28:00,56.6,43.7,30.06,WNW,299,4.0,11.0,62,0.00,,,0.00,Wunderground v.1.15,2013-05-05 18:28:00,
2013-05-05 13:33:00,57.4,45.3,30.05,NW,304,1.0,4.0,64,0.00,,,0.00,Wunderground v.1.15,2013-05-05 18:33:00,
2013-05-05 13:38:00,58.5,45.9,30.05,ENE,66,5.0,9.0,63,0.00,,,0.00,Wunderground v.1.15,2013-05-05 18:38:00,
2013-05-05 13:43:00,58.6,44.3,30.05,NNE,30,2.0,8.0,59,0.00,,,0.00,Wunderground v.1.15,2013-05-05 18:43:00,
2013-05-05 13:48:00,57.5,44.1,30.05,WNW,285,2.0,9.0,61,0.00,,,0.00,Wunderground v.1.15,2013-05-05 18:48:00,
2013-05-05 13:53:00,57.4,44.9,30.05,WNW,285,3.0,5.0,63,0.00,,,0.00,Wunderground v.1.15,2013-05-05 18:53:00,
2013-05-05 13:58:00,58.1,45.6,30.05,NE,40,3.0,6.0,63,0.00,,,0.00,Wunderground v.1.15,2013-05-05 18:58:00,
2013-05-05 14:03:00,58.6,45.2,30.05,NW,309,1.0,9.0,61,0.00,,,0.00,Wunderground v.1.15,2013-05-05 19:03:00,
2013-05-05 14:08:00,59.6,46.6,30.05,NW,312,1.0,9.0,62,0.00,,,0.00,Wunderground v.1.15,2013-05-05 19:08:00,
2013-05-05 14:13:00,59.2,44.9,30.04,NW,316,1.0,4.0,59,0.00,,,0.00,Wunderground v.1.15,2013-05-05 19:13:00,
2013-05-05 14:18:00,59.3,46.3,30.04,NW,304,2.0,4.0,62,0.00,,,0.00,Wunderground v.1.15,2013-05-05 19:18:00,
2013-05-05 14:23:00,59.3,45.8,30.04,NNW,336,1.0,7.0,61,0.00,,,0.00,Wunderground v.1.15,2013-05-05 19:23:00,
2013-05-05 14:28:00,59.4,45.5,30.04,NNE,18,3.0,7.0,60,0.00,,,0.00,Wunderground v.1.15,2013-05-05 19:28:00,
2013-05-05 14:33:00,59.5,46.9,30.04,NW,325,3.0,7.0,63,0.00,,,0.00,Wunderground v.1.15,2013-05-05 19:33:00,
2013-05-05 14:38:00,59.5,46.5,30.04,NW,306,4.0,7.0,62,0.00,,,0.00,Wunderground v.1.15,2013-05-05 19:38:00,
2013-05-05 14:43:00,59.7,47.5,30.04,NNE,27,3.0,8.0,64,0.00,,,0.00,Wunderground v.1.15,2013-05-05 19:43:00,
2013-05-05 14:48:00,60.8,47.7,30.04,NW,304,4.0,8.0,62,0.00,,,0.00,Wunderground v.1.15,2013-05-05 19:48:00,
2013-05-05 14:53:00,60.2,45.8,30.04,NW,321,5.0,9.0,59,0.00,,,0.00,Wunderground v.1.15,2013-05-05 19:53:00,
2013-05-05 14:58:00,59.6,46.6,30.03,ENE,58,3.0,9.0,62,0.00,,,0.00,Wunderground v.1.15,2013-05-05 19:58:00,
2013-05-05 15:03:00,60.5,47.8,30.03,WNW,301,2.0,5.0,63,0.00,,,0.00,Wunderground v.1.15,2013-05-05 20:03:00,
2013-05-05 15:08:00,60.5,47.0,30.03,NW,307,2.0,5.0,61,0.00,,,0.00,Wunderground v.1.15,2013-05-05 20:08:00,
2013-05-05 15:13:00,60.5,47.0,30.03,North,6,3.0,11.0,61,0.00,,,0.00,Wunderground v.1.15,2013-05-05 20:13:00,
2013-05-05 15:18:00,59.9,46.4,30.03,NW,314,4.0,11.0,61,0.00,,,0.00,Wunderground v.1.15,2013-05-05 20:18:00,
2013-05-05 15:23:00,59.2,46.2,30.03,NW,318,5.0,7.0,62,0.00,,,0.00,Wunderground v.1.15,2013-05-05 20:23:00,
2013-05-05 15:28:00,58.9,46.3,30.03,NNE,20,4.0,7.0,63,0.00,,,0.00,Wunderground v.1.15,2013-05-05 20:28:00,
2013-05-05 15:33:00,58.6,46.5,30.03,NW,319,3.0,6.0,64,0.00,,,0.00,Wunderground v.1.15,2013-05-05 20:33:00,
2013-05-05 15:38:00,58.4,46.7,30.03,NW,307,6.0,9.0,65,0.00,,,0.00,Wunderground v.1.15,2013-05-05 20:38:00,
2013-05-05 15:43:00,58.1,46.8,30.03,WNW,299,4.0,10.0,66,0.00,,,0.00,Wunderground v.1.15,2013-05-05 20:43:00,
2013-05-05 15:48:00,58.0,47.1,30.03,NW,319,4.0,10.0,67,0.00,,,0.00,Wunderground v.1.15,2013-05-05 20:48:00,
2013-05-05 15:53:00,59.2,48.2,30.03,West,264,2.0,5.0,67,0.00,,,0.00,Wunderground v.1.15,2013-05-05 20:53:00,
2013-05-05 15:58:00,59.2,47.4,30.03,NW,318,9.0,12.0,65,0.00,,,0.00,Wunderground v.1.15,2013-05-05 20:58:00,
2013-05-05 16:03:00,59.2,47.8,30.03,WSW,253,7.0,9.0,66,0.00,,,0.00,Wunderground v.1.15,2013-05-05 21:03:00,
2013-05-05 16:08:00,59.8,47.6,30.03,NW,307,4.0,9.0,64,0.00,,,0.00,Wunderground v.1.15,2013-05-05 21:08:00,
2013-05-05 16:13:00,59.4,47.6,30.03,NW,316,4.0,11.0,65,0.00,,,0.00,Wunderground v.1.15,2013-05-05 21:13:00,
2013-05-05 16:18:00,59.1,47.3,30.03,WNW,291,4.0,12.0,65,0.00,,,0.00,Wunderground v.1.15,2013-05-05 21:18:00,
2013-05-05 16:23:00,58.7,47.8,30.03,NW,304,3.0,6.0,67,0.00,,,0.00,Wunderground v.1.15,2013-05-05 21:23:00,
2013-05-05 16:28:00,58.5,47.6,30.03,WSW,252,8.0,8.0,67,0.00,,,0.00,Wunderground v.1.15,2013-05-05 21:28:00,
2013-05-05 16:33:00,58.3,47.4,30.03,WNW,290,4.0,6.0,67,0.00,,,0.00,Wunderground v.1.15,2013-05-05 21:33:00,
2013-05-05 16:38:00,58.2,47.3,30.03,NNW,345,3.0,9.0,67,0.00,,,0.00,Wunderground v.1.15,2013-05-05 21:38:00,
2013-05-05 16:43:00,58.0,47.5,30.03,WSW,253,6.0,11.0,68,0.00,,,0.00,Wunderground v.1.15,2013-05-05 21:43:00,
2013-05-05 16:48:00,57.9,47.4,30.02,NW,313,3.0,11.0,68,0.00,,,0.00,Wunderground v.1.15,2013-05-05 21:48:00,
2013-05-05 16:53:00,58.0,47.5,30.02,WNW,295,2.0,7.0,68,0.00,,,0.00,Wunderground v.1.15,2013-05-05 21:53:00,
2013-05-05 16:58:00,58.0,47.9,30.02,North,4,2.0,7.0,69,0.00,,,0.00,Wunderground v.1.15,2013-05-05 21:58:00,
2013-05-05 17:03:00,57.9,47.4,30.02,NW,314,2.0,7.0,68,0.00,,,0.00,Wunderground v.1.15,2013-05-05 22:03:00,
2013-05-05 17:08:00,57.8,47.3,30.02,NNE,23,3.0,7.0,68,0.00,,,0.00,Wunderground v.1.15,2013-05-05 22:08:00,
2013-05-05 17:13:00,57.8,48.1,30.02,North,11,6.0,8.0,70,0.00,,,0.00,Wunderground v.1.15,2013-05-05 22:13:00,
2013-05-05 17:18:00,58.2,48.8,30.02,NNE,18,3.0,8.0,71,0.00,,,0.00,Wunderground v.1.15,2013-05-05 22:18:00,
2013-05-05 17:23:00,58.2,48.1,30.03,NW,320,3.0,7.0,69,0.00,,,0.00,Wunderground v.1.15,2013-05-05 22:23:00,
2013-05-05 17:28:00,58.0,47.9,30.02,NW,309,5.0,9.0,69,0.00,,,0.00,Wunderground v.1.15,2013-05-05 22:28:00,
2013-05-05 17:33:00,57.8,48.1,30.02,NW,321,2.0,8.0,70,0.00,,,0.00,Wunderground v.1.15,2013-05-05 22:33:00,
2013-05-05 17:38:00,57.7,48.4,30.03,WNW,292,5.0,8.0,71,0.00,,,0.00,Wunderground v.1.15,2013-05-05 22:38:00,
2013-05-05 17:43:00,57.8,48.8,30.03,North,357,0.0,4.0,72,0.00,,,0.00,Wunderground v.1.15,2013-05-05 22:43:00,
2013-05-05 17:48:00,57.9,48.9,30.03,NNW,333,0.0,5.0,72,0.00,,,0.00,Wunderground v.1.15,2013-05-05 22:48:00,
2013-05-05 17:53:00,58.0,48.6,30.02,NNE,20,1.0,6.0,71,0.00,,,0.00,Wunderground v.1.15,2013-05-05 22:53:00,
2013-05-05 17:58:00,57.9,48.6,30.02,WNW,297,2.0,6.0,71,0.00,,,0.00,Wunderground v.1.15,2013-05-05 22:58:00,
2013-05-05 18:03:00,57.8,48.5,30.02,NW,312,3.0,7.0,71,0.00,,,0.00,Wunderground v.1.15,2013-05-05 23:03:00,
2013-05-05 18:08:00,57.7,48.7,30.03,NE,37,1.0,7.0,72,0.00,,,0.00,Wunderground v.1.15,2013-05-05 23:08:00,
2013-05-05 18:13:00,57.9,48.9,30.02,North,354,3.0,5.0,72,0.00,,,0.00,Wunderground v.1.15,2013-05-05 23:13:00,
2013-05-05 18:18:00,57.7,48.4,30.02,NNW,347,2.0,6.0,71,0.00,,,0.00,Wunderground v.1.15,2013-05-05 23:18:00,
2013-05-05 18:23:00,57.4,48.4,30.02,East,97,4.0,5.0,72,0.00,,,0.00,Wunderground v.1.15,2013-05-05 23:23:00,
2013-05-05 18:28:00,57.2,48.6,30.02,NE,51,3.0,5.0,73,0.00,,,0.00,Wunderground v.1.15,2013-05-05 23:28:00,
2013-05-05 18:34:00,57.1,48.9,30.02,NW,326,1.0,2.0,74,0.00,,,0.00,Wunderground v.1.15,2013-05-05 23:34:00,
2013-05-05 18:40:00,57.1,48.9,30.02,WNW,284,2.0,2.0,74,0.00,,,0.00,Wunderground v.1.15,2013-05-05 23:40:00,
2013-05-05 18:45:00,57.3,49.1,30.02,NW,326,1.0,4.0,74,0.00,,,0.00,Wunderground v.1.15,2013-05-05 23:45:00,
2013-05-05 18:50:00,57.8,49.2,30.02,NW,304,6.0,6.0,73,0.00,,,0.00,Wunderground v.1.15,2013-05-05 23:50:00,
2013-05-05 18:55:00,58.2,49.2,30.01,NW,316,2.0,6.0,72,0.00,,,0.00,Wunderground v.1.15,2013-05-05 23:55:00,
2013-05-05 19:00:00,58.0,49.0,30.01,WNW,294,5.0,5.0,72,0.00,,,0.00,Wunderground v.1.15,2013-05-06 00:00:00,
2013-05-05 19:05:00,57.8,49.2,30.01,NNE,20,3.0,6.0,73,0.00,,,0.00,Wunderground v.1.15,2013-05-06 00:05:00,
2013-05-05 19:10:00,57.6,49.0,30.01,NW,314,2.0,3.0,73,0.00,,,0.00,Wunderground v.1.15,2013-05-06 00:10:00,
2013-05-05 19:15:00,57.2,49.3,30.01,NNE,23,2.0,6.0,75,0.00,,,0.00,Wunderground v.1.15,2013-05-06 00:15:00,
2013-05-05 19:20:00,56.8,49.0,30.01,WNW,297,3.0,3.0,75,0.00,,,0.00,Wunderground v.1.15,2013-05-06 00:20:00,
2013-05-05 19:25:00,56.7,49.2,30.01,WSW,250,4.0,6.0,76,0.00,,,0.00,Wunderground v.1.15,2013-05-06 00:25:00,
2013-05-05 19:30:00,56.7,49.2,30.01,WSW,258,3.0,4.0,76,0.00,,,0.00,Wunderground v.1.15,2013-05-06 00:30:00,
2013-05-05 19:35:00,56.6,49.1,30.01,WSW,256,4.0,6.0,76,0.00,,,0.00,Wunderground v.1.15,2013-05-06 00:35:00,
2013-05-05 19:40:00,56.5,49.0,30.01,NW,314,2.0,3.0,76,0.00,,,0.00,Wunderground v.1.15,2013-05-06 00:40:00,
2013-05-05 19:45:00,56.3,48.8,30.01,WNW,284,1.0,3.0,76,0.00,,,0.00,Wunderground v.1.15,2013-05-06 00:45:00,
2013-05-05 19:50:00,56.0,48.9,30.01,NW,318,2.0,3.0,77,0.00,,,0.00,Wunderground v.1.15,2013-05-06 00:50:00,
2013-05-05 19:55:00,55.8,48.7,30.01,West,264,0.0,4.0,77,0.00,,,0.00,Wunderground v.1.15,2013-05-06 00:55:00,
2013-05-05 20:00:00,55.6,48.8,30.01,NW,306,0.0,1.0,78,0.00,,,0.00,Wunderground v.1.15,2013-05-06 01:00:00,
2013-05-05 20:05:00,55.4,48.7,30.01,West,274,1.0,2.0,78,0.00,,,0.00,Wunderground v.1.15,2013-05-06 01:05:00,
2013-05-05 20:10:00,55.2,48.5,30.01,WNW,285,1.0,1.0,78,0.00,,,0.00,Wunderground v.1.15,2013-05-06 01:10:00,
2013-05-05 20:15:00,55.0,48.6,30.02,West,281,1.0,3.0,79,0.00,,,0.00,Wunderground v.1.15,2013-05-06 01:15:00,
2013-05-05 20:20:00,54.7,48.6,30.02,WNW,282,1.0,1.0,80,0.00,,,0.00,Wunderground v.1.15,2013-05-06 01:20:00,
2013-05-05 20:25:00,54.5,48.5,30.02,West,264,0.0,3.0,80,0.00,,,0.00,Wunderground v.1.15,2013-05-06 01:25:00,
2013-05-05 20:30:00,54.3,48.3,30.02,West,264,0.0,1.0,80,0.00,,,0.00,Wunderground v.1.15,2013-05-06 01:30:00,
2013-05-05 20:35:00,53.9,48.9,30.03,SE,125,1.0,1.0,83,0.00,,,0.00,Wunderground v.1.15,2013-05-06 01:35:00,
2013-05-05 20:40:00,53.6,48.6,30.03,West,263,0.0,1.0,83,0.00,,,0.00,Wunderground v.1.15,2013-05-06 01:40:00,
2013-05-05 20:45:00,53.4,48.7,30.03,West,263,0.0,1.0,84,0.00,,,0.00,Wunderground v.1.15,2013-05-06 01:45:00,
2013-05-05 20:50:00,53.3,48.9,30.03,West,263,0.0,0.0,85,0.00,,,0.00,Wunderground v.1.15,2013-05-06 01:50:00,
2013-05-05 20:55:00,53.2,49.1,30.03,West,276,0.0,1.0,86,0.00,,,0.00,Wunderground v.1.15,2013-05-06 01:55:00,
2013-05-05 21:00:00,53.2,49.1,30.03,West,276,0.0,0.0,86,0.00,,,0.00,Wunderground v.1.15,2013-05-06 02:00:00,
2013-05-05 21:05:00,53.1,49.0,30.03,WNW,291,3.0,4.0,86,0.00,,,0.00,Wunderground v.1.15,2013-05-06 02:05:00,
2013-05-05 21:10:00,53.5,48.8,30.03,NW,315,2.0,2.0,84,0.00,,,0.00,Wunderground v.1.15,2013-05-06 02:10:00,
2013-05-05 21:15:00,53.8,48.8,30.03,WNW,284,3.0,4.0,83,0.00,,,0.00,Wunderground v.1.15,2013-05-06 02:15:00,
2013-05-05 21:20:00,53.9,48.9,30.03,West,273,2.0,3.0,83,0.00,,,0.00,Wunderground v.1.15,2013-05-06 02:20:00,
2013-05-05 21:25:00,53.8,48.8,30.03,WSW,250,1.0,4.0,83,0.00,,,0.00,Wunderground v.1.15,2013-05-06 02:25:00,
2013-05-05 21:30:00,53.8,48.8,30.03,West,278,2.0,3.0,83,0.00,,,0.00,Wunderground v.1.15,2013-05-06 02:30:00,
2013-05-05 21:35:00,53.7,48.7,30.03,NW,319,6.0,8.0,83,0.00,,,0.00,Wunderground v.1.15,2013-05-06 02:35:00,
2013-05-05 21:40:00,53.7,48.7,30.03,SW,235,3.0,5.0,83,0.00,,,0.00,Wunderground v.1.15,2013-05-06 02:40:00,
2013-05-05 21:45:00,53.6,48.6,30.03,WNW,294,1.0,5.0,83,0.00,,,0.00,Wunderground v.1.15,2013-05-06 02:45:00,
2013-05-05 21:50:00,53.6,48.2,30.04,SW,229,0.0,3.0,82,0.00,,,0.00,Wunderground v.1.15,2013-05-06 02:50:00,
2013-05-05 21:55:00,53.5,48.5,30.04,WNW,295,1.0,3.0,83,0.00,,,0.00,Wunderground v.1.15,2013-05-06 02:55:00,
2013-05-05 22:00:00,53.4,48.0,30.04,WSW,255,4.0,4.0,82,0.00,,,0.00,Wunderground v.1.15,2013-05-06 03:00:00,
2013-05-05 22:05:00,53.3,47.9,30.04,WNW,291,1.0,6.0,82,0.00,,,0.00,Wunderground v.1.15,2013-05-06 03:05:00,
2013-05-05 22:10:00,53.2,47.8,30.04,WSW,256,2.0,4.0,82,0.00,,,0.00,Wunderground v.1.15,2013-05-06 03:10:00,
2013-05-05 22:15:00,53.2,47.8,30.04,WSW,256,1.0,4.0,82,0.00,,,0.00,Wunderground v.1.15,2013-05-06 03:15:00,
2013-05-05 22:20:00,53.1,48.1,30.04,West,270,0.0,2.0,83,0.00,,,0.00,Wunderground v.1.15,2013-05-06 03:20:00,
2013-05-05 22:25:00,53.0,48.0,30.04,WSW,243,1.0,3.0,83,0.00,,,0.00,Wunderground v.1.15,2013-05-06 03:25:00,
2013-05-05 22:30:00,53.0,48.0,30.04,SSE,149,0.0,1.0,83,0.00,,,0.00,Wunderground v.1.15,2013-05-06 03:30:00,
2013-05-05 22:35:00,52.9,48.2,30.04,West,277,0.0,2.0,84,0.00,,,0.00,Wunderground v.1.15,2013-05-06 03:35:00,
2013-05-05 22:40:00,52.9,47.9,30.04,NW,304,0.0,0.0,83,0.00,,,0.00,Wunderground v.1.15,2013-05-06 03:40:00,
2013-05-05 22:45:00,52.8,48.1,30.04,West,276,2.0,3.0,84,0.00,,,0.00,Wunderground v.1.15,2013-05-06 03:45:00,
2013-05-05 22:50:00,52.6,47.9,30.04,West,262,1.0,2.0,84,0.00,,,0.00,Wunderground v.1.15,2013-05-06 03:50:00,
2013-05-05 22:55:00,52.5,47.8,30.04,NW,316,4.0,5.0,84,0.00,,,0.00,Wunderground v.1.15,2013-05-06 03:55:00,
2013-05-05 23:00:00,52.5,47.8,30.04,NW,317,0.0,2.0,84,0.00,,,0.00,Wunderground v.1.15,2013-05-06 04:00:00,
2013-05-05 23:01:00,52.5,47.8,30.04,NW,318,0.0,2.0,84,0.00,,,0.00,Wunderground v.1.15,2013-05-06 04:01:00,
2013-05-05 23:06:00,52.5,48.1,30.04,West,273,3.0,3.0,85,0.00,,,0.00,Wunderground v.1.15,2013-05-06 04:06:00,
2013-05-05 23:11:00,52.5,48.1,30.04,WSW,251,4.0,4.0,85,0.00,,,0.00,Wunderground v.1.15,2013-05-06 04:11:00,
2013-05-05 23:16:00,52.4,48.0,30.04,SW,226,1.0,5.0,85,0.00,,,0.00,Wunderground v.1.15,2013-05-06 04:16:00,
2013-05-05 23:21:00,52.3,47.9,30.04,West,268,0.0,4.0,85,0.00,,,0.00,Wunderground v.1.15,2013-05-06 04:21:00,
2013-05-05 23:26:00,52.3,48.2,30.04,WNW,283,2.0,5.0,86,0.00,,,0.00,Wunderground v.1.15,2013-05-06 04:26:00,
2013-05-05 23:31:00,52.3,48.2,30.04,NW,312,2.0,4.0,86,0.00,,,0.00,Wunderground v.1.15,2013-05-06 04:31:00,
2013-05-05 23:36:00,52.4,48.0,30.04,SW,226,0.0,4.0,85,0.00,,,0.00,Wunderground v.1.15,2013-05-06 04:36:00,
2013-05-05 23:41:00,52.3,48.2,30.04,NW,304,1.0,2.0,86,0.00,,,0.00,Wunderground v.1.15,2013-05-06 04:41:00,
2013-05-05 23:46:00,52.2,48.1,30.04,SW,222,0.0,2.0,86,0.00,,,0.00,Wunderground v.1.15,2013-05-06 04:46:00,
2013-05-05 23:51:00,52.2,48.1,30.04,West,262,1.0,2.0,86,0.00,,,0.00,Wunderground v.1.15,2013-05-06 04:51:00,
2013-05-05 23:56:00,52.2,48.1,30.04,West,278,1.0,3.0,86,0.00,,,0.00,Wunderground v.1.15,2013-05-06 04:56:00,